createdAt,value
2017-03-04T00:00:24.303Z,0
2017-03-04T00:01:04.929Z,0
2017-03-04T00:01:45.537Z,0
2017-03-04T00:02:26.123Z,0
2017-03-04T00:03:06.740Z,0
2017-03-04T00:03:47.327Z,0
2017-03-04T00:04:27.954Z,0
2017-03-04T00:05:08.595Z,0
2017-03-04T00:05:49.182Z,0
2017-03-04T00:06:29.798Z,0
2017-03-04T00:07:10.403Z,0
2017-03-04T00:07:51.291Z,0
2017-03-04T00:08:31.929Z,0
2017-03-04T00:09:12.535Z,0
2017-03-04T00:09:53.155Z,0
2017-03-04T00:10:33.755Z,0
2017-03-04T00:11:14.329Z,0
2017-03-04T00:11:54.930Z,0
2017-03-04T00:12:35.523Z,0
2017-03-04T00:13:16.143Z,0
2017-03-04T00:13:56.760Z,0
2017-03-04T00:14:37.380Z,0
2017-03-04T00:15:17.988Z,0
2017-03-04T00:15:58.610Z,0
2017-03-04T00:16:39.225Z,0
2017-03-04T00:17:19.818Z,0
2017-03-04T00:18:00.414Z,0
2017-03-04T00:18:41.052Z,0
2017-03-04T00:19:21.746Z,0
2017-03-04T00:20:02.346Z,0
2017-03-04T00:20:42.949Z,0
2017-03-04T00:21:23.544Z,0
2017-03-04T00:22:04.178Z,0
2017-03-04T00:22:44.772Z,0
2017-03-04T00:23:25.387Z,0
2017-03-04T00:24:05.974Z,0
2017-03-04T00:24:46.552Z,0
2017-03-04T00:25:27.174Z,0
2017-03-04T00:26:07.803Z,0
2017-03-04T00:26:48.395Z,0
2017-03-04T00:27:29.026Z,0
2017-03-04T00:28:09.641Z,0
2017-03-04T00:28:56.872Z,0
2017-03-04T00:29:37.541Z,0
2017-03-04T00:30:18.125Z,0
2017-03-04T00:30:58.722Z,0
2017-03-04T00:31:39.311Z,0
2017-03-04T00:32:19.905Z,0
2017-03-04T00:33:00.513Z,0
2017-03-04T00:33:41.140Z,0
2017-03-04T00:34:21.745Z,0
2017-03-04T00:35:02.359Z,0
2017-03-04T00:35:42.952Z,0
2017-03-04T00:36:23.544Z,0
2017-03-04T00:37:04.147Z,0
2017-03-04T00:37:44.736Z,0
2017-03-04T00:38:25.379Z,0
2017-03-04T00:39:05.950Z,0
2017-03-04T00:39:46.573Z,0
2017-03-04T00:40:27.220Z,0
2017-03-04T00:41:07.781Z,0
2017-03-04T00:41:48.386Z,0
2017-03-04T00:42:28.990Z,0
2017-03-04T00:43:09.574Z,0
2017-03-04T00:43:50.201Z,0
2017-03-04T00:44:30.847Z,0
2017-03-04T00:45:11.437Z,0
2017-03-04T00:45:52.023Z,0
2017-03-04T00:46:32.650Z,0
2017-03-04T00:47:13.252Z,0
2017-03-04T00:47:53.873Z,0
2017-03-04T00:48:34.484Z,0
2017-03-04T00:49:15.087Z,0
2017-03-04T00:49:55.697Z,0
2017-03-04T00:50:36.315Z,0
2017-03-04T00:53:19.560Z,0
2017-03-04T00:54:00.120Z,0
2017-03-04T00:54:40.716Z,0
2017-03-04T00:55:21.301Z,0
2017-03-04T00:56:01.871Z,0
2017-03-04T00:56:42.477Z,0
2017-03-04T00:57:23.070Z,0
2017-03-04T00:58:03.693Z,0
2017-03-04T00:58:44.274Z,0
2017-03-04T00:59:24.903Z,0
2017-03-04T01:00:05.492Z,0
2017-03-04T01:00:46.097Z,0
2017-03-04T01:01:26.683Z,0
2017-03-04T01:02:07.262Z,0
2017-03-04T01:02:47.868Z,0
2017-03-04T01:03:28.436Z,0
2017-03-04T01:04:09.051Z,0
2017-03-04T01:04:49.694Z,0
2017-03-04T01:05:30.300Z,0
2017-03-04T01:06:10.882Z,0
2017-03-04T01:06:51.495Z,0
2017-03-04T01:07:32.108Z,0
2017-03-04T01:08:12.752Z,0
2017-03-04T01:08:53.355Z,0
2017-03-04T01:09:33.984Z,0
2017-03-04T01:10:14.577Z,0
2017-03-04T01:10:55.201Z,0
2017-03-04T01:11:35.815Z,0
2017-03-04T01:12:16.418Z,0
2017-03-04T01:12:57.005Z,0
2017-03-04T01:13:37.659Z,0
2017-03-04T01:14:18.278Z,0
2017-03-04T01:14:58.909Z,0
2017-03-04T01:15:39.500Z,0
2017-03-04T01:16:20.131Z,0
2017-03-04T01:17:00.739Z,0
2017-03-04T01:17:41.338Z,0
2017-03-04T01:18:21.908Z,0
2017-03-04T01:19:02.517Z,0
2017-03-04T01:19:43.170Z,0
2017-03-04T01:20:23.846Z,0
2017-03-04T01:21:04.423Z,0
2017-03-04T01:21:45.189Z,0
2017-03-04T01:22:25.810Z,0
2017-03-04T01:23:06.439Z,0
2017-03-04T01:23:47.128Z,0
2017-03-04T01:24:27.710Z,0
2017-03-04T01:25:08.327Z,0
2017-03-04T01:25:48.995Z,0
2017-03-04T01:26:29.602Z,0
2017-03-04T01:27:10.270Z,0
2017-03-04T01:27:50.885Z,0
2017-03-04T01:28:31.506Z,0
2017-03-04T01:29:12.111Z,0
2017-03-04T01:29:52.716Z,0
2017-03-04T01:30:33.357Z,0
2017-03-04T01:31:13.968Z,0
2017-03-04T01:31:54.579Z,0
2017-03-04T01:32:35.193Z,0
2017-03-04T01:33:15.836Z,0
2017-03-04T01:33:56.477Z,0
2017-03-04T01:34:37.089Z,0
2017-03-04T01:35:17.688Z,0
2017-03-04T01:35:58.340Z,0
2017-03-04T01:36:38.944Z,0
2017-03-04T01:37:19.547Z,0
2017-03-04T01:38:00.176Z,0
2017-03-04T01:38:40.797Z,0
2017-03-04T01:39:21.429Z,0
2017-03-04T01:40:02.022Z,0
2017-03-04T01:40:42.669Z,0
2017-03-04T01:41:23.299Z,0
2017-03-04T01:42:03.913Z,0
2017-03-04T01:42:44.554Z,0
2017-03-04T01:43:25.179Z,0
2017-03-04T01:44:05.790Z,0
2017-03-04T01:44:46.385Z,0
2017-03-04T01:45:27.016Z,0
2017-03-04T01:46:07.637Z,0
2017-03-04T01:46:48.266Z,0
2017-03-04T01:47:29.596Z,0
2017-03-04T01:48:10.242Z,0
2017-03-04T01:48:50.872Z,0
2017-03-04T01:49:31.501Z,0
2017-03-04T01:50:12.121Z,0
2017-03-04T01:50:52.778Z,0
2017-03-04T01:51:33.383Z,0
2017-03-04T01:52:14.017Z,0
2017-03-04T01:52:54.639Z,0
2017-03-04T01:53:35.248Z,0
2017-03-04T01:54:15.856Z,0
2017-03-04T01:54:56.486Z,0
2017-03-04T01:55:37.160Z,0
2017-03-04T01:56:17.773Z,0
2017-03-04T01:56:58.383Z,0
2017-03-04T01:57:39.019Z,0
2017-03-04T01:58:19.650Z,0
2017-03-04T01:59:00.243Z,0
2017-03-04T01:59:40.905Z,0
2017-03-04T02:00:21.528Z,0
2017-03-04T02:01:02.154Z,0
2017-03-04T02:01:42.758Z,0
2017-03-04T02:02:23.370Z,0
2017-03-04T02:03:04.023Z,0
2017-03-04T02:03:44.679Z,0
2017-03-04T02:04:25.289Z,0
2017-03-04T02:05:05.974Z,0
2017-03-04T02:05:46.561Z,0
2017-03-04T02:06:27.215Z,0
2017-03-04T02:07:07.868Z,0
2017-03-04T02:07:48.405Z,0
2017-03-04T02:08:29.046Z,0
2017-03-04T02:09:09.666Z,0
2017-03-04T02:09:50.254Z,0
2017-03-04T02:10:30.906Z,0
2017-03-04T02:11:11.542Z,0
2017-03-04T02:11:52.152Z,0
2017-03-04T02:12:32.759Z,0
2017-03-04T02:13:13.460Z,0
2017-03-04T02:13:54.072Z,0
2017-03-04T02:14:34.704Z,0
2017-03-04T02:15:15.293Z,0
2017-03-04T02:15:55.904Z,0
2017-03-04T02:16:36.539Z,0
2017-03-04T02:17:17.118Z,0
2017-03-04T02:17:57.784Z,0
2017-03-04T02:18:38.395Z,0
2017-03-04T02:19:19.077Z,0
2017-03-04T02:19:59.655Z,0
2017-03-04T02:20:40.285Z,0
2017-03-04T02:21:20.887Z,0
2017-03-04T02:22:01.487Z,0
2017-03-04T02:22:42.168Z,0
2017-03-04T02:23:22.806Z,0
2017-03-04T02:24:03.393Z,0
2017-03-04T02:24:43.999Z,0
2017-03-04T02:25:24.613Z,0
2017-03-04T02:26:05.224Z,0
2017-03-04T02:26:45.838Z,0
2017-03-04T02:27:26.507Z,0
2017-03-04T02:28:07.177Z,0
2017-03-04T02:28:47.831Z,0
2017-03-04T02:29:28.437Z,0
2017-03-04T02:30:09.053Z,0
2017-03-04T02:30:49.673Z,0
2017-03-04T02:31:30.291Z,0
2017-03-04T02:32:10.890Z,0
2017-03-04T02:32:51.523Z,0
2017-03-04T02:33:32.187Z,0
2017-03-04T02:34:12.825Z,0
2017-03-04T02:34:53.435Z,0
2017-03-04T02:35:34.065Z,0
2017-03-04T02:36:14.688Z,0
2017-03-04T02:36:55.272Z,0
2017-03-04T02:37:35.862Z,0
2017-03-04T02:38:16.481Z,0
2017-03-04T02:38:57.098Z,0
2017-03-04T02:39:37.735Z,0
2017-03-04T02:40:18.349Z,0
2017-03-04T02:40:58.959Z,0
2017-03-04T02:41:39.800Z,0
2017-03-04T02:42:20.417Z,0
2017-03-04T02:43:01.060Z,0
2017-03-04T02:43:41.687Z,0
2017-03-04T02:44:22.269Z,0
2017-03-04T02:45:02.906Z,0
2017-03-04T02:45:43.507Z,0
2017-03-04T02:46:24.125Z,0
2017-03-04T02:47:04.749Z,0
2017-03-04T02:47:45.360Z,0
2017-03-04T02:48:25.992Z,0
2017-03-04T02:49:06.612Z,0
2017-03-04T02:49:47.253Z,0
2017-03-04T02:50:27.791Z,0
2017-03-04T02:51:08.459Z,0
2017-03-04T02:51:49.016Z,0
2017-03-04T02:52:29.628Z,0
2017-03-04T02:53:10.240Z,0
2017-03-04T02:53:50.856Z,0
2017-03-04T02:54:31.436Z,0
2017-03-04T02:55:12.036Z,0
2017-03-04T02:55:52.653Z,0
2017-03-04T02:56:33.243Z,0
2017-03-04T02:57:13.842Z,0
2017-03-04T02:57:54.438Z,0
2017-03-04T02:58:35.043Z,0
2017-03-04T02:59:15.639Z,0
2017-03-04T02:59:56.220Z,0
2017-03-04T03:00:36.791Z,0
2017-03-04T03:01:17.397Z,0
2017-03-04T03:01:58.049Z,0
2017-03-04T03:02:38.634Z,0
2017-03-04T03:03:19.212Z,0
2017-03-04T03:03:59.811Z,0
2017-03-04T03:04:40.418Z,0
2017-03-04T03:05:21.013Z,0
2017-03-04T03:06:01.603Z,0
2017-03-04T03:06:42.219Z,0
2017-03-04T03:07:22.848Z,0
2017-03-04T03:08:03.469Z,0
2017-03-04T03:08:44.111Z,0
2017-03-04T03:09:24.728Z,0
2017-03-04T03:10:05.325Z,0
2017-03-04T03:10:45.939Z,0
2017-03-04T03:11:26.516Z,0
2017-03-04T03:12:07.139Z,0
2017-03-04T03:12:47.688Z,0
2017-03-04T03:13:28.277Z,0
2017-03-04T03:14:08.868Z,0
2017-03-04T03:14:49.477Z,0
2017-03-04T03:15:30.071Z,0
2017-03-04T03:16:10.660Z,0
2017-03-04T03:16:51.274Z,0
2017-03-04T03:17:31.883Z,0
2017-03-04T03:18:12.483Z,0
2017-03-04T03:18:53.085Z,0
2017-03-04T03:19:33.649Z,0
2017-03-04T03:20:14.249Z,0
2017-03-04T03:20:54.863Z,0
2017-03-04T03:21:35.441Z,0
2017-03-04T03:22:16.028Z,0
2017-03-04T03:22:56.595Z,0
2017-03-04T03:23:37.230Z,0
2017-03-04T03:24:17.859Z,0
2017-03-04T03:24:58.486Z,0
2017-03-04T03:25:39.104Z,0
2017-03-04T03:26:19.719Z,0
2017-03-04T03:27:00.323Z,0
2017-03-04T03:27:40.932Z,0
2017-03-04T03:28:21.513Z,0
2017-03-04T03:29:02.155Z,0
2017-03-04T03:29:42.755Z,0
2017-03-04T03:30:23.343Z,0
2017-03-04T03:31:03.937Z,0
2017-03-04T03:31:44.549Z,0
2017-03-04T03:32:25.141Z,0
2017-03-04T03:33:05.742Z,0
2017-03-04T03:33:46.349Z,0
2017-03-04T03:34:26.946Z,0
2017-03-04T03:35:07.527Z,0
2017-03-04T03:35:48.154Z,0
2017-03-04T03:36:28.753Z,0
2017-03-04T03:37:09.338Z,0
2017-03-04T03:37:49.942Z,0
2017-03-04T03:38:30.563Z,0
2017-03-04T03:39:11.162Z,0
2017-03-04T03:39:51.752Z,0
2017-03-04T03:40:32.339Z,0
2017-03-04T03:41:12.932Z,0
2017-03-04T03:41:53.532Z,0
2017-03-04T03:42:34.126Z,0
2017-03-04T03:43:14.743Z,0
2017-03-04T03:43:55.332Z,0
2017-03-04T03:44:35.943Z,0
2017-03-04T03:45:16.540Z,0
2017-03-04T03:45:57.138Z,0
2017-03-04T03:46:37.726Z,0
2017-03-04T03:47:18.321Z,0
2017-03-04T03:47:58.930Z,0
2017-03-04T03:48:39.541Z,0
2017-03-04T03:49:20.132Z,0
2017-03-04T03:50:00.708Z,0
2017-03-04T03:50:41.313Z,0
2017-03-04T03:51:21.894Z,0
2017-03-04T03:52:02.515Z,0
2017-03-04T03:52:43.124Z,0
2017-03-04T03:53:23.747Z,0
2017-03-04T03:54:04.351Z,0
2017-03-04T03:54:44.994Z,0
2017-03-04T03:55:25.595Z,0
2017-03-04T03:56:06.214Z,0
2017-03-04T03:56:46.799Z,0
2017-03-04T03:57:27.389Z,0
2017-03-04T03:58:07.971Z,0
2017-03-04T03:58:48.592Z,0
2017-03-04T03:59:29.210Z,0
2017-03-04T04:00:09.800Z,0
2017-03-04T04:00:50.389Z,0
2017-03-04T04:01:30.967Z,0
2017-03-04T04:02:11.555Z,0
2017-03-04T04:02:52.162Z,0
2017-03-04T04:03:32.749Z,0
2017-03-04T04:04:13.346Z,0
2017-03-04T04:04:53.968Z,0
2017-03-04T04:05:34.546Z,0
2017-03-04T04:06:15.130Z,0
2017-03-04T04:06:55.724Z,0
2017-03-04T04:07:36.316Z,0
2017-03-04T04:08:16.899Z,0
2017-03-04T04:08:57.520Z,0
2017-03-04T04:09:38.129Z,0
2017-03-04T04:10:18.714Z,0
2017-03-04T04:10:59.350Z,0
2017-03-04T04:11:39.936Z,0
2017-03-04T04:12:20.545Z,0
2017-03-04T04:13:01.167Z,0
2017-03-04T04:13:41.773Z,0
2017-03-04T04:14:22.370Z,0
2017-03-04T04:15:02.996Z,0
2017-03-04T04:15:43.574Z,0
2017-03-04T04:16:24.165Z,0
2017-03-04T04:17:04.748Z,0
2017-03-04T04:17:45.379Z,0
2017-03-04T04:18:25.954Z,0
2017-03-04T04:19:06.565Z,0
2017-03-04T04:19:47.245Z,0
2017-03-04T04:20:27.829Z,0
2017-03-04T04:21:08.420Z,0
2017-03-04T04:21:49.012Z,0
2017-03-04T04:22:29.623Z,0
2017-03-04T04:23:10.223Z,0
2017-03-04T04:23:50.849Z,0
2017-03-04T04:24:31.431Z,0
2017-03-04T04:25:12.044Z,0
2017-03-04T04:25:52.658Z,0
2017-03-04T04:26:33.259Z,0
2017-03-04T04:27:13.860Z,0
2017-03-04T04:27:54.489Z,0
2017-03-04T04:28:35.101Z,0
2017-03-04T04:29:15.697Z,0
2017-03-04T04:29:56.286Z,0
2017-03-04T04:30:36.904Z,0
2017-03-04T04:31:17.548Z,0
2017-03-04T04:31:58.167Z,0
2017-03-04T04:32:38.752Z,0
2017-03-04T04:33:19.347Z,0
2017-03-04T04:33:59.950Z,0
2017-03-04T04:34:40.582Z,0
2017-03-04T04:35:21.239Z,0
2017-03-04T04:36:01.805Z,0
2017-03-04T04:36:42.447Z,0
2017-03-04T04:37:23.071Z,0
2017-03-04T04:38:03.653Z,0
2017-03-04T04:38:44.247Z,0
2017-03-04T04:39:24.846Z,0
2017-03-04T04:40:05.454Z,0
2017-03-04T04:40:46.029Z,0
2017-03-04T04:41:26.652Z,0
2017-03-04T04:42:07.257Z,0
2017-03-04T04:42:47.854Z,0
2017-03-04T04:43:28.459Z,0
2017-03-04T04:44:09.053Z,0
2017-03-04T04:44:49.666Z,0
2017-03-04T04:45:30.252Z,0
2017-03-04T04:46:10.876Z,0
2017-03-04T04:46:51.498Z,0
2017-03-04T04:47:32.086Z,0
2017-03-04T04:48:12.691Z,0
2017-03-04T04:48:53.276Z,0
2017-03-04T04:49:33.877Z,0
2017-03-04T04:50:14.466Z,0
2017-03-04T04:50:55.037Z,0
2017-03-04T04:51:35.630Z,0
2017-03-04T04:52:16.269Z,0
2017-03-04T04:52:56.874Z,0
2017-03-04T04:53:37.485Z,0
2017-03-04T04:54:18.094Z,0
2017-03-04T04:54:58.675Z,0
2017-03-04T04:55:39.333Z,0
2017-03-04T04:56:19.990Z,0
2017-03-04T04:57:00.548Z,0
2017-03-04T04:57:41.121Z,0
2017-03-04T04:58:21.710Z,0
2017-03-04T04:59:02.313Z,0
2017-03-04T04:59:42.914Z,0
2017-03-04T05:00:23.505Z,0
2017-03-04T05:01:04.092Z,0
2017-03-04T05:01:44.678Z,0
2017-03-04T05:02:25.334Z,0
2017-03-04T05:03:05.915Z,0
2017-03-04T05:03:46.520Z,0
2017-03-04T05:04:27.112Z,0
2017-03-04T05:05:07.728Z,0
2017-03-04T05:05:48.332Z,0
2017-03-04T05:06:28.907Z,0
2017-03-04T05:07:09.538Z,0
2017-03-04T05:07:50.117Z,0
2017-03-04T05:08:30.724Z,0
2017-03-04T05:09:11.324Z,0
2017-03-04T05:09:51.947Z,0
2017-03-04T05:10:32.563Z,0
2017-03-04T05:11:13.212Z,0
2017-03-04T05:11:53.840Z,0
2017-03-04T05:12:34.454Z,0
2017-03-04T05:13:15.083Z,0
2017-03-04T05:13:55.641Z,0
2017-03-04T05:14:36.216Z,0
2017-03-04T05:15:16.788Z,0
2017-03-04T05:15:57.384Z,0
2017-03-04T05:16:37.983Z,0
2017-03-04T05:17:18.585Z,0
2017-03-04T05:17:59.187Z,0
2017-03-04T05:18:39.799Z,0
2017-03-04T05:19:20.380Z,0
2017-03-04T05:20:00.969Z,0
2017-03-04T05:20:41.553Z,0
2017-03-04T05:21:22.210Z,0
2017-03-04T05:22:02.906Z,0
2017-03-04T05:22:43.521Z,4
2017-03-04T05:23:24.126Z,4
2017-03-04T05:24:04.716Z,4
2017-03-04T05:24:45.311Z,4
2017-03-04T05:25:25.937Z,4
2017-03-04T05:26:06.534Z,0
2017-03-04T05:26:47.140Z,4
2017-03-04T05:27:27.723Z,4
2017-03-04T05:28:08.340Z,4
2017-03-04T05:28:48.929Z,4
2017-03-04T05:29:29.560Z,8
2017-03-04T05:30:10.141Z,4
2017-03-04T05:30:50.780Z,8
2017-03-04T05:31:31.373Z,8
2017-03-04T05:32:11.964Z,8
2017-03-04T05:32:52.534Z,8
2017-03-04T05:33:33.170Z,12
2017-03-04T05:34:13.775Z,12
2017-03-04T05:34:54.352Z,12
2017-03-04T05:35:34.966Z,12
2017-03-04T05:36:15.578Z,16
2017-03-04T05:36:56.223Z,16
2017-03-04T05:37:36.806Z,20
2017-03-04T05:38:17.431Z,20
2017-03-04T05:38:58.079Z,20
2017-03-04T05:39:38.724Z,24
2017-03-04T05:40:19.315Z,24
2017-03-04T05:40:59.938Z,28
2017-03-04T05:41:40.519Z,28
2017-03-04T05:42:21.142Z,28
2017-03-04T05:43:01.786Z,32
2017-03-04T05:43:42.383Z,32
2017-03-04T05:44:22.992Z,36
2017-03-04T05:45:03.588Z,40
2017-03-04T05:45:44.181Z,40
2017-03-04T05:46:24.798Z,44
2017-03-04T05:47:05.420Z,44
2017-03-04T05:47:46.011Z,48
2017-03-04T05:48:26.614Z,52
2017-03-04T05:49:07.185Z,56
2017-03-04T05:49:47.799Z,56
2017-03-04T05:50:28.359Z,64
2017-03-04T05:51:08.971Z,68
2017-03-04T05:51:49.560Z,68
2017-03-04T05:52:30.158Z,72
2017-03-04T05:53:10.753Z,80
2017-03-04T05:53:51.340Z,84
2017-03-04T05:54:31.961Z,88
2017-03-04T05:55:12.590Z,92
2017-03-04T05:55:53.297Z,104
2017-03-04T05:56:33.913Z,108
2017-03-04T05:57:14.501Z,116
2017-03-04T05:57:55.133Z,120
2017-03-04T05:58:35.790Z,128
2017-03-04T05:59:16.353Z,136
2017-03-04T05:59:56.933Z,144
2017-03-04T06:00:37.652Z,156
2017-03-04T06:01:18.234Z,164
2017-03-04T06:01:58.827Z,176
2017-03-04T06:02:39.415Z,184
2017-03-04T06:03:20.010Z,196
2017-03-04T06:04:00.727Z,204
2017-03-04T06:04:41.192Z,216
2017-03-04T06:05:21.777Z,224
2017-03-04T06:06:02.400Z,236
2017-03-04T06:06:42.987Z,244
2017-03-04T06:07:23.643Z,256
2017-03-04T06:08:04.251Z,268
2017-03-04T06:08:44.839Z,284
2017-03-04T06:09:25.437Z,292
2017-03-04T06:10:06.044Z,308
2017-03-04T06:10:46.649Z,316
2017-03-04T06:11:27.242Z,332
2017-03-04T06:12:07.845Z,344
2017-03-04T06:12:48.459Z,356
2017-03-04T06:13:29.084Z,372
2017-03-04T06:14:09.654Z,392
2017-03-04T06:14:50.253Z,408
2017-03-04T06:15:30.855Z,420
2017-03-04T06:16:11.476Z,436
2017-03-04T06:16:52.072Z,452
2017-03-04T06:17:32.663Z,472
2017-03-04T06:18:13.258Z,488
2017-03-04T06:18:53.896Z,512
2017-03-04T06:19:34.490Z,532
2017-03-04T06:20:15.099Z,556
2017-03-04T06:20:55.737Z,576
2017-03-04T06:21:36.278Z,596
2017-03-04T06:22:16.886Z,620
2017-03-04T06:22:57.464Z,644
2017-03-04T06:23:38.086Z,672
2017-03-04T06:24:18.693Z,696
2017-03-04T06:24:59.286Z,724
2017-03-04T06:25:39.896Z,756
2017-03-04T06:26:20.491Z,784
2017-03-04T06:27:01.092Z,816
2017-03-04T06:27:41.689Z,848
2017-03-04T06:28:22.301Z,884
2017-03-04T06:29:02.891Z,920
2017-03-04T06:29:43.483Z,956
2017-03-04T06:30:24.103Z,996
2017-03-04T06:31:04.694Z,1040
2017-03-04T06:31:45.335Z,1080
2017-03-04T06:32:25.961Z,1120
2017-03-04T06:33:06.568Z,1148
2017-03-04T06:33:47.190Z,1180
2017-03-04T06:34:27.800Z,1212
2017-03-04T06:35:08.435Z,1248
2017-03-04T06:35:49.040Z,1296
2017-03-04T06:36:29.667Z,1344
2017-03-04T06:37:10.300Z,1380
2017-03-04T06:37:50.890Z,1424
2017-03-04T06:38:31.640Z,1468
2017-03-04T06:39:12.245Z,1524
2017-03-04T06:39:52.943Z,1580
2017-03-04T06:40:33.728Z,1624
2017-03-04T06:41:14.324Z,1672
2017-03-04T06:41:55.648Z,1716
2017-03-04T06:42:36.281Z,1756
2017-03-04T06:43:16.938Z,1812
2017-03-04T06:43:57.601Z,1880
2017-03-04T06:44:38.228Z,1952
2017-03-04T06:45:18.856Z,2028
2017-03-04T06:45:59.488Z,2108
2017-03-04T06:46:40.082Z,2184
2017-03-04T06:47:20.757Z,2268
2017-03-04T06:48:01.379Z,2356
2017-03-04T06:48:41.964Z,2432
2017-03-04T06:49:22.609Z,2500
2017-03-04T06:50:03.198Z,2560
2017-03-04T06:50:43.911Z,2612
2017-03-04T06:51:24.595Z,2672
2017-03-04T06:52:05.208Z,2724
2017-03-04T06:52:45.804Z,2788
2017-03-04T06:53:26.424Z,2852
2017-03-04T06:54:07.004Z,2924
2017-03-04T06:54:47.605Z,2996
2017-03-04T06:55:28.209Z,3064
2017-03-04T06:56:08.830Z,3128
2017-03-04T06:56:49.488Z,3188
2017-03-04T06:57:30.133Z,3244
2017-03-04T06:58:10.787Z,3292
2017-03-04T06:58:51.375Z,3348
2017-03-04T06:59:32.005Z,3416
2017-03-04T07:00:12.644Z,3480
2017-03-04T07:00:53.302Z,3544
2017-03-04T07:01:33.884Z,3624
2017-03-04T07:02:14.509Z,3704
2017-03-04T07:02:55.111Z,3784
2017-03-04T07:03:35.722Z,3844
2017-03-04T07:04:16.327Z,3892
2017-03-04T07:04:57.016Z,3932
2017-03-04T07:05:37.622Z,3956
2017-03-04T07:06:18.235Z,3976
2017-03-04T07:06:58.870Z,4000
2017-03-04T07:07:39.542Z,4024
2017-03-04T07:08:20.178Z,4056
2017-03-04T07:09:00.812Z,4092
2017-03-04T07:09:41.461Z,4136
2017-03-04T07:10:22.135Z,4188
2017-03-04T07:11:02.762Z,4244
2017-03-04T07:11:43.406Z,4308
2017-03-04T07:12:24.012Z,4368
2017-03-04T07:13:04.652Z,4432
2017-03-04T07:13:45.287Z,4500
2017-03-04T07:14:25.882Z,4564
2017-03-04T07:15:06.644Z,4628
2017-03-04T07:15:47.168Z,4704
2017-03-04T07:16:28.390Z,4784
2017-03-04T07:17:09.015Z,4868
2017-03-04T07:17:49.820Z,4960
2017-03-04T07:18:30.430Z,5048
2017-03-04T07:19:11.088Z,5120
2017-03-04T07:19:51.792Z,5188
2017-03-04T07:20:32.388Z,5232
2017-03-04T07:21:12.919Z,5292
2017-03-04T07:21:53.509Z,5352
2017-03-04T07:22:34.097Z,5424
2017-03-04T07:23:14.692Z,5524
2017-03-04T07:23:55.292Z,5640
2017-03-04T07:24:35.881Z,5764
2017-03-04T07:25:16.484Z,5880
2017-03-04T07:25:57.103Z,6008
2017-03-04T07:26:37.715Z,6140
2017-03-04T07:27:20.387Z,6268
2017-03-04T07:28:02.494Z,6408
2017-03-04T07:28:46.545Z,6552
2017-03-04T07:29:27.945Z,6684
2017-03-04T07:30:08.536Z,6796
2017-03-04T07:30:49.165Z,6880
2017-03-04T07:31:30.080Z,6944
2017-03-04T07:32:11.047Z,7028
2017-03-04T07:32:51.722Z,7100
2017-03-04T07:33:32.610Z,7196
2017-03-04T07:34:13.204Z,7304
2017-03-04T07:34:53.955Z,7472
2017-03-04T07:35:34.554Z,7772
2017-03-04T07:36:15.167Z,8232
2017-03-04T07:36:55.804Z,8956
2017-03-04T07:37:36.405Z,9628
2017-03-04T07:38:17.007Z,9952
2017-03-04T07:38:57.615Z,9864
2017-03-04T07:39:38.208Z,9660
2017-03-04T07:40:18.898Z,9344
2017-03-04T07:40:59.574Z,9028
2017-03-04T07:41:40.173Z,8984
2017-03-04T07:42:20.823Z,8752
2017-03-04T07:43:01.432Z,9256
2017-03-04T07:43:42.079Z,9884
2017-03-04T07:44:22.682Z,10064
2017-03-04T07:45:03.307Z,10452
2017-03-04T07:45:43.967Z,10732
2017-03-04T07:46:24.574Z,11048
2017-03-04T07:47:05.173Z,11248
2017-03-04T07:47:45.950Z,11596
2017-03-04T07:48:26.535Z,12088
2017-03-04T07:49:07.142Z,12476
2017-03-04T07:49:47.732Z,13104
2017-03-04T07:50:28.311Z,13012
2017-03-04T07:51:08.953Z,13948
2017-03-04T07:51:49.589Z,13948
2017-03-04T07:52:30.208Z,13396
2017-03-04T07:53:10.831Z,15288
2017-03-04T07:53:51.416Z,16672
2017-03-04T07:54:32.017Z,18176
2017-03-04T07:55:12.613Z,18592
2017-03-04T07:55:53.221Z,17984
2017-03-04T07:56:33.854Z,19136
2017-03-04T07:57:14.441Z,19872
2017-03-04T07:57:55.121Z,21504
2017-03-04T07:58:35.754Z,22624
2017-03-04T07:59:16.363Z,22496
2017-03-04T07:59:56.952Z,22624
2017-03-04T08:00:37.531Z,22400
2017-03-04T08:01:18.138Z,20576
2017-03-04T08:01:58.730Z,20256
2017-03-04T08:02:39.354Z,21376
2017-03-04T08:03:20.004Z,25696
2017-03-04T08:04:00.612Z,25504
2017-03-04T08:04:41.207Z,23392
2017-03-04T08:05:21.800Z,25920
2017-03-04T08:06:02.425Z,26240
2017-03-04T08:06:42.984Z,25952
2017-03-04T08:07:23.605Z,26080
2017-03-04T08:08:04.200Z,25152
2017-03-04T08:08:44.825Z,24448
2017-03-04T08:09:25.410Z,25184
2017-03-04T08:10:06.013Z,26272
2017-03-04T08:10:46.600Z,28128
2017-03-04T08:11:27.221Z,27904
2017-03-04T08:12:07.850Z,31072
2017-03-04T08:12:48.506Z,36000
2017-03-04T08:13:29.125Z,35072
2017-03-04T08:14:09.869Z,33632
2017-03-04T08:14:50.392Z,32672
2017-03-04T08:15:30.976Z,31296
2017-03-04T08:16:11.586Z,31808
2017-03-04T08:16:52.176Z,30688
2017-03-04T08:17:32.791Z,31072
2017-03-04T08:18:13.386Z,31584
2017-03-04T08:18:53.987Z,35040
2017-03-04T08:19:34.593Z,34848
2017-03-04T08:20:15.214Z,32896
2017-03-04T08:20:55.834Z,33440
2017-03-04T08:21:36.432Z,34528
2017-03-04T08:22:17.048Z,28640
2017-03-04T08:22:57.657Z,29728
2017-03-04T08:23:38.267Z,31808
2017-03-04T08:24:18.868Z,32544
2017-03-04T08:24:59.475Z,32864
2017-03-04T08:25:40.086Z,34144
2017-03-04T08:26:20.759Z,31776
2017-03-04T08:27:01.359Z,31552
2017-03-04T08:27:41.969Z,29792
2017-03-04T08:28:22.691Z,29792
2017-03-04T08:29:03.315Z,30432
2017-03-04T08:29:43.974Z,29056
2017-03-04T08:30:24.657Z,27616
2017-03-04T08:31:05.258Z,30112
2017-03-04T08:31:45.885Z,31808
2017-03-04T08:32:26.506Z,29792
2017-03-04T08:33:07.085Z,27136
2017-03-04T08:33:47.704Z,33536
2017-03-04T08:34:28.340Z,34016
2017-03-04T08:35:08.954Z,35584
2017-03-04T08:35:49.541Z,36768
2017-03-04T08:36:30.131Z,31328
2017-03-04T08:37:10.748Z,27808
2017-03-04T08:37:51.357Z,24800
2017-03-04T08:38:31.957Z,28000
2017-03-04T08:39:12.575Z,25920
2017-03-04T08:39:53.171Z,24608
2017-03-04T08:40:33.759Z,25792
2017-03-04T08:41:14.378Z,25440
2017-03-04T08:41:54.984Z,26432
2017-03-04T08:42:35.602Z,26688
2017-03-04T08:43:16.188Z,26112
2017-03-04T08:43:56.769Z,25728
2017-03-04T08:44:37.382Z,25664
2017-03-04T08:45:18.012Z,24896
2017-03-04T08:45:58.600Z,24320
2017-03-04T08:46:39.214Z,22304
2017-03-04T08:47:19.803Z,20640
2017-03-04T08:48:00.444Z,17280
2017-03-04T08:48:41.039Z,20768
2017-03-04T08:49:21.652Z,20928
2017-03-04T08:50:02.263Z,21280
2017-03-04T08:50:42.868Z,21440
2017-03-04T08:51:23.455Z,21344
2017-03-04T08:52:04.071Z,19488
2017-03-04T08:52:44.879Z,17344
2017-03-04T08:53:25.529Z,16896
2017-03-04T08:54:06.225Z,17440
2017-03-04T08:54:46.860Z,17184
2017-03-04T08:55:27.478Z,16192
2017-03-04T08:56:08.119Z,15968
2017-03-04T08:56:53.527Z,15904
2017-03-04T08:57:35.404Z,15584
2017-03-04T08:58:15.990Z,15456
2017-03-04T08:58:56.582Z,14364
2017-03-04T08:59:37.195Z,12408
2017-03-04T09:00:17.804Z,15256
2017-03-04T09:00:58.395Z,15036
2017-03-04T09:01:39.004Z,14620
2017-03-04T09:02:19.603Z,14268
2017-03-04T09:03:00.193Z,14136
2017-03-04T09:03:40.810Z,13680
2017-03-04T09:04:21.379Z,13356
2017-03-04T09:05:01.968Z,12688
2017-03-04T09:05:42.559Z,12424
2017-03-04T09:06:23.169Z,12120
2017-03-04T09:07:04.480Z,11676
2017-03-04T09:07:45.099Z,11288
2017-03-04T09:08:25.674Z,11084
2017-03-04T09:09:06.285Z,11000
2017-03-04T09:09:46.914Z,10568
2017-03-04T09:10:27.500Z,10476
2017-03-04T09:11:08.133Z,10132
2017-03-04T09:11:48.754Z,10068
2017-03-04T09:12:29.344Z,9488
2017-03-04T09:13:09.976Z,9968
2017-03-04T09:13:50.647Z,9956
2017-03-04T09:14:31.257Z,9864
2017-03-04T09:15:11.849Z,10020
2017-03-04T09:15:52.440Z,9916
2017-03-04T09:16:33.078Z,9760
2017-03-04T09:17:13.660Z,9548
2017-03-04T09:17:54.284Z,9652
2017-03-04T09:18:34.878Z,9212
2017-03-04T09:19:15.484Z,9552
2017-03-04T09:19:56.106Z,9644
2017-03-04T09:20:36.703Z,9656
2017-03-04T09:21:17.355Z,9056
2017-03-04T09:21:57.985Z,9160
2017-03-04T09:22:38.581Z,9056
2017-03-04T09:23:19.212Z,8992
2017-03-04T09:23:59.822Z,9072
2017-03-04T09:24:40.439Z,9012
2017-03-04T09:25:21.068Z,8852
2017-03-04T09:26:01.679Z,8868
2017-03-04T09:26:42.280Z,8768
2017-03-04T09:27:22.855Z,8504
2017-03-04T09:28:03.470Z,8448
2017-03-04T09:28:44.067Z,8448
2017-03-04T09:29:24.735Z,8328
2017-03-04T09:30:05.382Z,8236
2017-03-04T09:30:45.973Z,8100
2017-03-04T09:31:26.582Z,8056
2017-03-04T09:32:07.223Z,7792
2017-03-04T09:32:47.834Z,7608
2017-03-04T09:33:28.445Z,7488
2017-03-04T09:34:09.111Z,7428
2017-03-04T09:34:49.757Z,7472
2017-03-04T09:35:30.398Z,7448